Time;durP1;ratioP1;P1;durP2;ratioP2;P2;SDS_P1;SDS_P2;PMS_P1;PMS_P2;Temp;Humidity;BMP_temperature;BMP_pressure;BME280_temperature;BME280_humidity;BME280_pressure;Samples;Min_cycle;Max_cycle;Signal;HPM_P1;HPM_P2
2021/12/02 00:00:52;;;;;;;2.15;1.30;;;;;;;-2.82;100.00;98145.97;4977413;28;20434;-64
2021/12/02 00:03:38;;;;;;;5.75;1.77;;;;;;;-2.75;100.00;98150.34;4987300;28;20563;-65
2021/12/02 00:06:24;;;;;;;4.75;1.70;;;;;;;-2.74;100.00;98158.97;4988019;28;20432;-64
2021/12/02 00:09:09;;;;;;;2.92;1.60;;;;;;;-2.85;100.00;98161.50;4989203;28;20153;-63
2021/12/02 00:11:54;;;;;;;2.00;1.42;;;;;;;-2.79;100.00;98161.53;4989552;28;20061;-62
2021/12/02 00:14:41;;;;;;;3.70;1.48;;;;;;;-2.69;100.00;98165.91;4988042;28;20131;-62
2021/12/02 00:17:29;;;;;;;3.13;1.70;;;;;;;-2.72;100.00;98162.44;4986636;28;20078;-66
2021/12/02 00:23:30;;;;;;;3.25;1.48;;;;;;;-2.60;100.00;98167.69;4992576;28;20069;-63
2021/12/02 00:26:18;;;;;;;3.75;1.70;;;;;;;-2.59;100.00;98182.41;4988851;28;20053;-61
2021/12/02 00:29:07;;;;;;;3.25;1.98;;;;;;;-2.74;100.00;98179.69;4973906;28;20065;-60
2021/12/02 00:31:52;;;;;;;7.60;1.67;;;;;;;-2.75;100.00;98190.94;4981761;28;20057;-59
2021/12/02 00:34:45;;;;;;;3.63;1.38;;;;;;;-2.69;100.00;98188.41;4998000;28;20658;-63
2021/12/02 00:37:31;;;;;;;3.47;1.50;;;;;;;-2.66;100.00;98189.28;4982360;28;20081;-65
2021/12/02 00:40:16;;;;;;;3.05;1.27;;;;;;;-2.62;100.00;98208.31;4983579;28;20049;-62
2021/12/02 00:43:01;;;;;;;3.42;1.48;;;;;;;-2.70;100.00;98208.28;4973721;28;20065;-66
2021/12/02 00:45:46;;;;;;;2.38;1.20;;;;;;;-2.82;100.00;98209.91;4987545;28;20116;-66
2021/12/02 00:48:35;;;;;;;5.72;1.30;;;;;;;-2.85;100.00;98215.94;4973769;28;20386;-64
2021/12/02 00:51:21;;;;;;;5.32;1.60;;;;;;;-2.76;100.00;98222.94;4974670;28;20065;-63
2021/12/02 00:54:09;;;;;;;3.63;1.40;;;;;;;-2.77;100.00;98224.63;4984706;28;20057;-59
2021/12/02 00:56:55;;;;;;;3.72;1.58;;;;;;;-2.75;100.00;98240.22;4982807;28;20076;-67
2021/12/02 00:59:40;;;;;;;3.50;1.65;;;;;;;-2.74;100.00;98236.75;4978054;28;20116;-64
2021/12/02 01:02:27;;;;;;;3.58;1.63;;;;;;;-2.68;100.00;98236.81;4992396;28;20049;-63
2021/12/02 01:05:12;;;;;;;3.35;1.48;;;;;;;-2.74;100.00;98267.88;4981216;28;20132;-63
2021/12/02 01:08:00;;;;;;;4.10;1.88;;;;;;;-2.66;100.00;98277.47;4984801;28;20073;-62
2021/12/02 01:10:44;;;;;;;3.97;2.05;;;;;;;-2.78;100.00;98254.03;4984745;28;20465;-62
2021/12/02 01:13:29;;;;;;;3.50;1.77;;;;;;;-2.77;100.00;98263.53;4985891;28;20061;-64
2021/12/02 01:16:15;;;;;;;6.03;2.15;;;;;;;-2.77;100.00;98271.31;4975926;28;20057;-67
2021/12/02 01:19:00;;;;;;;5.63;1.60;;;;;;;-2.65;100.00;98270.56;4986221;28;20045;-63
2021/12/02 01:21:48;;;;;;;3.47;1.80;;;;;;;-2.66;100.00;98268.78;4997786;28;20049;-63
2021/12/02 01:24:34;;;;;;;4.47;1.90;;;;;;;-2.71;100.00;98276.56;4987135;28;20045;-63
2021/12/02 01:27:21;;;;;;;2.78;1.70;;;;;;;-2.67;100.00;98283.50;4970374;28;20057;-62
2021/12/02 01:30:08;;;;;;;4.50;1.63;;;;;;;-2.78;100.00;98279.97;4974299;28;20569;-64
2021/12/02 01:33:00;;;;;;;4.50;1.73;;;;;;;-2.85;100.00;98285.94;4985449;28;20086;-62
2021/12/02 01:35:50;;;;;;;3.90;1.67;;;;;;;-2.83;100.00;98283.38;4980623;28;20505;-62
2021/12/02 01:38:34;;;;;;;3.70;1.70;;;;;;;-3.02;100.00;98289.22;4985985;28;20053;-66
2021/12/02 01:41:19;;;;;;;8.20;2.15;;;;;;;-3.03;100.00;98297.88;4970564;28;20053;-60
2021/12/02 01:44:11;;;;;;;3.67;1.88;;;;;;;-3.03;100.00;98267.66;4996175;28;20082;-63
2021/12/02 01:46:58;;;;;;;4.85;1.90;;;;;;;-2.95;100.00;98288.44;4986220;28;20109;-66
2021/12/02 01:49:43;;;;;;;3.08;1.30;;;;;;;-2.95;100.00;98304.00;4980635;28;20196;-65
2021/12/02 01:52:32;;;;;;;6.28;1.73;;;;;;;-2.90;100.00;98290.22;4983944;28;20590;-64
2021/12/02 01:55:18;;;;;;;4.75;1.98;;;;;;;-2.78;100.00;98294.63;4984724;28;20057;-64
2021/12/02 01:58:05;;;;;;;3.50;1.42;;;;;;;-2.74;100.00;98310.25;4983159;28;20057;-63
2021/12/02 02:00:51;;;;;;;5.50;1.60;;;;;;;-2.70;100.00;98301.63;4986644;28;20053;-62
2021/12/02 02:03:37;;;;;;;2.42;1.33;;;;;;;-2.72;100.00;98308.53;4979118;28;20045;-58
2021/12/02 02:06:30;;;;;;;;;;;;;;;-2.63;100.00;98316.41;4974471;28;20507;-61
2021/12/02 02:09:15;;;;;;;3.28;0.88;;;;;;;-2.68;100.00;98312.91;4981572;28;19933;-65
2021/12/02 02:12:08;;;;;;;;;;;;;;;-2.55;100.00;98322.50;4984850;28;20062;-61
2021/12/02 02:14:55;;;;;;;1.75;0.90;;;;;;;-2.51;100.00;98326.88;5001035;28;19976;-62
2021/12/02 02:20:52;;;;;;;2.55;1.10;;;;;;;-2.44;100.00;98317.41;4997801;28;20479;-61
2021/12/02 02:23:43;;;;;;;2.40;1.10;;;;;;;-2.41;100.00;98326.06;4982894;28;20697;-63
2021/12/02 02:26:34;;;;;;;2.75;1.27;;;;;;;-2.54;100.00;98331.19;4985450;28;20481;-62
2021/12/02 02:29:19;;;;;;;1.88;0.90;;;;;;;-2.51;100.00;98332.06;4984897;28;20192;-60
2021/12/02 02:32:05;;;;;;;2.63;1.20;;;;;;;-2.56;100.00;98327.69;4983504;28;20489;-65
2021/12/02 02:34:49;;;;;;;2.30;1.27;;;;;;;-2.49;100.00;98337.25;4984814;28;20086;-58
2021/12/02 02:37:36;;;;;;;2.00;1.10;;;;;;;-2.52;100.00;98340.69;4982599;28;20069;-61
2021/12/02 02:40:24;;;;;;;1.77;1.10;;;;;;;-2.55;100.00;98343.28;4984046;28;20048;-62
2021/12/02 02:43:11;;;;;;;1.83;0.98;;;;;;;-2.73;100.00;98344.84;4983761;28;20088;-62
2021/12/02 02:45:56;;;;;;;2.63;1.02;;;;;;;-2.82;100.00;98336.94;4984516;28;20092;-65
2021/12/02 02:48:41;;;;;;;3.33;1.08;;;;;;;-2.75;100.00;98350.00;4998068;28;20116;-62
2021/12/02 02:51:29;;;;;;;1.80;0.95;;;;;;;-2.81;100.00;98341.31;4976608;28;20056;-62
2021/12/02 02:54:16;;;;;;;2.75;1.17;;;;;;;-2.86;100.00;98346.44;4986069;28;20116;-61
2021/12/02 02:57:05;;;;;;;1.30;0.82;;;;;;;-2.67;100.00;98355.25;4986213;28;20308;-61
2021/12/02 03:00:14;;;;;;;3.97;1.13;;;;;;;-2.57;100.00;98331.16;4982671;28;20050;-64
2021/12/02 03:03:56;;;;;;;2.90;1.20;;;;;;;-2.69;100.00;98356.97;4984789;28;20089;-64
2021/12/02 03:06:29;;;;;;;1.83;1.10;;;;;;;-2.83;100.00;98362.03;4986269;28;20061;-62
2021/12/02 03:12:09;;;;;;;0.82;0.60;;;;;;;-2.89;100.00;98369.72;4986055;28;20066;-61
2021/12/02 03:17:47;;;;;;;1.63;0.90;;;;;;;-2.98;100.00;98367.06;4986058;28;20093;-62
2021/12/02 03:20:32;;;;;;;;;;;;;;;-2.78;100.00;98367.25;4997043;28;20057;-62
2021/12/02 03:23:17;;;;;;;1.42;0.80;;;;;;;-2.92;100.00;98369.72;4985250;28;20064;-65
2021/12/02 03:26:05;;;;;;;2.17;0.77;;;;;;;-2.89;100.00;98369.72;4985979;28;20137;-62
2021/12/02 03:28:51;;;;;;;1.35;0.93;;;;;;;-2.70;100.00;98373.38;4966811;28;20113;-66
2021/12/02 03:31:37;;;;;;;2.17;1.00;;;;;;;-2.59;100.00;98388.19;4973970;28;20105;-62
2021/12/02 03:34:21;;;;;;;2.33;1.13;;;;;;;-2.56;100.00;98389.94;4986355;28;20061;-62
2021/12/02 03:37:08;;;;;;;3.25;0.80;;;;;;;-2.64;100.00;98376.03;4987824;28;20565;-63
2021/12/02 03:39:52;;;;;;;3.40;1.10;;;;;;;-2.60;100.00;98395.97;4987147;28;20056;-64
2021/12/02 03:42:36;;;;;;;1.90;0.68;;;;;;;-2.45;100.00;98396.09;4987789;28;20241;-65
2021/12/02 03:45:26;;;;;;;2.97;1.10;;;;;;;-2.46;100.00;98390.03;4989124;28;20046;-63
2021/12/02 03:48:10;;;;;;;1.65;0.90;;;;;;;-2.48;100.00;98385.69;4985116;28;20426;-66
2021/12/02 03:50:55;;;;;;;1.67;0.80;;;;;;;-2.45;100.00;98390.91;4987480;28;20841;-64
2021/12/02 03:53:40;;;;;;;1.88;0.70;;;;;;;-2.45;100.00;98401.28;4987571;28;20084;-64
2021/12/02 03:56:25;;;;;;;1.63;0.80;;;;;;;-2.48;100.00;98409.03;4986077;28;20150;-64
2021/12/02 03:59:09;;;;;;;2.75;0.73;;;;;;;-2.45;100.00;98414.25;4989052;28;20091;-64
2021/12/02 04:01:54;;;;;;;2.03;0.93;;;;;;;-2.48;100.00;98411.63;4984301;28;20524;-66
2021/12/02 04:04:40;;;;;;;3.88;1.20;;;;;;;-2.44;100.00;98416.88;4987576;28;20130;-66
2021/12/02 04:07:26;;;;;;;1.38;0.98;;;;;;;-2.46;100.00;98412.53;4988693;28;20421;-66
2021/12/02 04:10:11;;;;;;;4.38;1.40;;;;;;;-2.53;100.00;98416.75;4988681;28;20057;-65
2021/12/02 04:16:15;;;;;;;3.47;1.77;;;;;;;-2.48;100.00;98420.28;4967342;28;20782;-63
2021/12/02 04:19:00;;;;;;;2.53;1.40;;;;;;;-2.44;100.00;98427.25;4965970;28;20090;-67
2021/12/02 04:21:45;;;;;;;2.08;1.10;;;;;;;-2.49;100.00;98430.66;4965949;28;20065;-62
2021/12/02 04:24:29;;;;;;;;;;;;;;;-2.47;100.00;98434.13;4982748;28;20526;-62
2021/12/02 04:27:14;;;;;;;1.38;0.93;;;;;;;-2.52;100.00;98430.63;4964912;28;20445;-66
2021/12/02 04:29:58;;;;;;;2.55;1.10;;;;;;;-2.52;100.00;98420.25;4958698;28;20093;-73
2021/12/02 04:32:44;;;;;;;2.28;1.02;;;;;;;-2.39;100.00;98435.06;4962227;28;20082;-65
2021/12/02 04:35:28;;;;;;;1.50;0.90;;;;;;;-2.39;100.00;98443.72;4953130;28;20057;-67
2021/12/02 04:38:13;;;;;;;2.33;1.30;;;;;;;-2.37;100.00;98454.13;4947201;28;20070;-66
2021/12/02 04:40:58;;;;;;;2.88;1.30;;;;;;;-2.42;100.00;98448.88;4966059;28;20057;-62
2021/12/02 04:43:42;;;;;;;2.38;1.02;;;;;;;-2.49;100.00;98461.78;4965279;28;20098;-67
2021/12/02 04:46:29;;;;;;;1.42;0.95;;;;;;;-2.40;100.00;98461.88;4970308;28;20148;-66
2021/12/02 04:49:13;;;;;;;2.42;0.93;;;;;;;-2.37;100.00;98457.56;4955211;28;20053;-63
2021/12/02 04:51:59;;;;;;;2.03;1.00;;;;;;;-2.49;100.00;98448.81;4974450;28;20053;-65
2021/12/02 04:54:43;;;;;;;3.08;1.10;;;;;;;-2.39;100.00;98458.41;4989169;28;20058;-64
2021/12/02 04:57:28;;;;;;;2.83;1.40;;;;;;;-2.16;100.00;98460.38;4988264;28;20056;-78
2021/12/02 05:00:16;;;;;;;1.73;1.17;;;;;;;-2.17;100.00;98470.75;4988284;28;20057;-73
2021/12/02 05:03:01;;;;;;;3.28;1.63;;;;;;;-2.15;100.00;98475.09;4981648;28;20076;-67
2021/12/02 05:05:45;;;;;;;2.72;1.25;;;;;;;-1.92;100.00;98486.56;4967870;28;20423;-69
2021/12/02 05:08:30;;;;;;;1.98;1.48;;;;;;;-2.10;100.00;98488.13;4980364;28;20553;-65
2021/12/02 05:11:14;;;;;;;3.10;1.60;;;;;;;-2.24;100.00;98481.91;4991678;28;20049;-67
2021/12/02 05:13:58;;;;;;;4.05;1.63;;;;;;;-2.16;100.00;98488.06;4986025;28;20482;-65
2021/12/02 05:16:43;;;;;;;4.00;1.85;;;;;;;-2.10;100.00;98491.56;4986398;28;20084;-66
2021/12/02 05:19:28;;;;;;;3.33;1.45;;;;;;;-2.17;100.00;98481.97;4986133;28;20056;-66
2021/12/02 05:22:13;;;;;;;2.85;1.55;;;;;;;-2.05;100.00;98494.22;4984503;28;20049;-67
2021/12/02 05:24:58;;;;;;;4.13;1.50;;;;;;;-2.20;100.00;98486.28;4972596;28;20538;-63
2021/12/02 05:27:43;;;;;;;3.05;1.20;;;;;;;-2.04;100.00;98495.94;4987176;28;20115;-64
2021/12/02 05:30:28;;;;;;;2.67;1.50;;;;;;;-1.88;100.00;98513.41;5005711;28;20509;-64
2021/12/02 05:33:13;;;;;;;1.90;1.13;;;;;;;-2.24;100.00;98507.88;4978437;28;20171;-65
2021/12/02 05:35:57;;;;;;;;;;;;;;;-2.53;100.00;98514.50;5005930;28;20052;-66
2021/12/02 05:38:42;;;;;;;2.70;1.30;;;;;;;-2.55;100.00;98522.25;5000907;28;19971;-67
2021/12/02 05:41:28;;;;;;;3.42;1.30;;;;;;;-2.44;100.00;98515.47;4990507;28;20087;-64
2021/12/02 05:44:13;;;;;;;2.53;1.50;;;;;;;-2.20;100.00;98515.72;5005201;28;20460;-65
2021/12/02 05:46:57;;;;;;;2.33;1.40;;;;;;;-2.28;100.00;98517.38;4976105;28;20124;-66
2021/12/02 05:49:42;;;;;;;3.85;1.52;;;;;;;-2.14;100.00;98520.09;4990669;28;20053;-65
2021/12/02 05:52:26;;;;;;;2.45;1.30;;;;;;;-2.24;100.00;98523.44;4985472;28;20060;-67
2021/12/02 05:55:11;;;;;;;3.42;1.30;;;;;;;-2.49;100.00;98530.09;4986676;28;20050;-70
2021/12/02 05:57:56;;;;;;;3.50;1.80;;;;;;;-2.51;100.00;98523.16;5005333;28;20103;-67
2021/12/02 06:00:42;;;;;;;3.58;1.60;;;;;;;-2.63;100.00;98529.09;4989940;28;20525;-69
2021/12/02 06:03:27;;;;;;;2.63;1.60;;;;;;;-2.79;100.00;98532.34;5004445;28;20496;-64
2021/12/02 06:06:11;;;;;;;3.88;1.38;;;;;;;-2.89;100.00;98552.97;4990327;28;20095;-64
2021/12/02 06:08:56;;;;;;;3.45;1.38;;;;;;;-3.09;100.00;98557.88;4984239;28;20053;-64
2021/12/02 06:11:41;;;;;;;;;;;;;;;-2.94;100.00;98552.91;4977236;28;20076;-65
2021/12/02 06:14:26;;;;;;;2.92;1.60;;;;;;;-2.80;100.00;98546.19;4989445;28;19928;-67
2021/12/02 06:17:10;;;;;;;3.00;1.55;;;;;;;-2.60;100.00;98554.19;5002643;28;20044;-65
2021/12/02 06:19:55;;;;;;;2.55;1.30;;;;;;;-2.47;100.00;98558.66;5003919;28;20572;-64
2021/12/02 06:22:40;;;;;;;2.72;1.40;;;;;;;-2.50;100.00;98562.09;5005943;28;20088;-67
2021/12/02 06:28:09;;;;;;;5.03;1.92;;;;;;;-2.20;100.00;98559.84;5005048;28;20076;-64
2021/12/02 06:30:54;;;;;;;3.00;1.70;;;;;;;-2.23;100.00;98569.31;5005269;28;20060;-64
2021/12/02 06:33:38;;;;;;;3.17;1.83;;;;;;;-2.14;100.00;98574.63;5004459;28;20095;-66
2021/12/02 06:36:23;;;;;;;4.38;1.85;;;;;;;-1.98;100.00;98587.75;5004658;28;20052;-64
2021/12/02 06:39:07;;;;;;;5.43;2.08;;;;;;;-1.96;100.00;98562.69;4986502;28;20057;-67
2021/12/02 06:41:52;;;;;;;;;;;;;;;-2.30;100.00;98578.75;5006656;28;20540;-67
2021/12/02 06:44:36;;;;;;;4.35;1.95;;;;;;;-2.46;100.00;98589.81;5002997;28;20392;-67
2021/12/02 06:47:26;;;;;;;2.92;1.73;;;;;;;-2.32;100.00;98603.84;4989830;28;20118;-66
2021/12/02 06:50:18;;;;;;;5.65;2.30;;;;;;;-2.14;100.00;98593.63;5004384;28;20053;-67
2021/12/02 06:53:05;;;;;;;4.72;1.90;;;;;;;-2.07;100.00;98595.47;4996926;28;20111;-66
2021/12/02 06:55:50;;;;;;;4.68;2.28;;;;;;;-2.01;100.00;98602.44;5005614;28;20049;-66
2021/12/02 06:58:35;;;;;;;5.30;2.72;;;;;;;-2.30;100.00;98604.72;5004193;28;20096;-67
2021/12/02 07:01:20;;;;;;;6.13;2.03;;;;;;;-2.35;100.00;98602.91;4990624;28;20137;-68
2021/12/02 07:04:04;;;;;;;5.07;2.08;;;;;;;-2.41;100.00;98602.84;4962193;28;20100;-66
2021/12/02 07:06:49;;;;;;;4.35;1.88;;;;;;;-2.29;100.00;98614.22;4967186;28;20100;-67
2021/12/02 07:09:36;;;;;;;5.63;2.00;;;;;;;-1.87;100.00;98608.63;5005193;28;20536;-64
2021/12/02 07:12:28;;;;;;;5.50;2.20;;;;;;;-1.36;100.00;98615.19;5002918;28;20552;-65
2021/12/02 07:15:19;;;;;;;5.68;1.95;;;;;;;-1.29;100.00;98605.69;4989555;28;20538;-64
2021/12/02 07:18:12;;;;;;;4.72;2.35;;;;;;;-1.37;100.00;98605.66;5003557;28;20470;-64
2021/12/02 07:20:56;;;;;;;6.05;2.40;;;;;;;-1.26;100.00;98605.72;5002936;28;20132;-66
2021/12/02 07:23:41;;;;;;;4.03;2.10;;;;;;;-1.23;100.00;98608.38;4991030;28;20049;-65
2021/12/02 07:26:25;;;;;;;6.28;2.50;;;;;;;-0.98;100.00;98608.50;4979623;28;20100;-63
2021/12/02 07:29:12;;;;;;;4.72;2.60;;;;;;;-1.00;100.00;98611.97;5002733;28;20065;-65
2021/12/02 07:32:00;;;;;;;4.55;2.33;;;;;;;-1.43;100.00;98620.31;5001734;28;20056;-64
2021/12/02 07:34:45;;;;;;;5.32;2.50;;;;;;;-1.34;100.00;98623.00;5001976;28;20045;-67
2021/12/02 07:37:30;;;;;;;7.10;3.05;;;;;;;-1.36;100.00;98620.38;4989544;28;20053;-66
2021/12/02 07:40:17;;;;;;;4.75;2.40;;;;;;;-1.31;100.00;98607.41;5003037;28;20652;-65
2021/12/02 07:43:04;;;;;;;6.68;3.00;;;;;;;-1.36;100.00;98615.19;4996247;28;20048;-66
2021/12/02 07:45:48;;;;;;;4.85;2.90;;;;;;;-1.48;100.00;98615.09;4974178;28;20085;-68
2021/12/02 07:48:35;;;;;;;4.47;2.72;;;;;;;-1.38;100.00;98611.69;4997857;28;20049;-70
2021/12/02 07:51:20;;;;;;;6.57;2.88;;;;;;;-1.43;100.00;98617.69;5000816;28;20650;-63
2021/12/02 07:54:05;;;;;;;5.15;2.05;;;;;;;-1.25;100.00;98612.66;4998940;28;20123;-63
2021/12/02 07:56:49;;;;;;;5.15;1.70;;;;;;;-1.48;100.00;98612.47;4997875;28;20532;-63
2021/12/02 07:59:34;;;;;;;4.82;2.08;;;;;;;-1.02;100.00;98616.31;4986199;28;20099;-65
2021/12/02 08:02:21;;;;;;;5.70;2.20;;;;;;;-1.01;100.00;98607.63;4999976;28;20157;-65
2021/12/02 08:05:06;;;;;;;4.82;1.88;;;;;;;-1.32;100.00;98614.34;4986894;28;20108;-68
2021/12/02 08:07:52;;;;;;;3.05;1.70;;;;;;;-1.24;100.00;98604.88;4987772;28;20045;-68
2021/12/02 08:10:38;;;;;;;3.67;1.73;;;;;;;-1.17;100.00;98600.59;4985131;28;20056;-64
2021/12/02 08:13:33;;;;;;;4.47;1.73;;;;;;;-1.48;100.00;98609.88;4984612;28;20544;-67
2021/12/02 08:16:21;;;;;;;;;;;;;;;-1.12;100.00;98617.09;4980183;28;20048;-63
2021/12/02 08:19:06;;;;;;;3.47;1.77;;;;;;;-0.78;100.00;98601.69;4980081;28;20327;-65
2021/12/02 08:21:51;;;;;;;4.10;1.80;;;;;;;-1.11;100.00;98609.31;5005938;28;20064;-65
2021/12/02 08:24:36;;;;;;;6.57;1.92;;;;;;;-1.20;100.00;98603.16;5007934;28;20147;-61
2021/12/02 08:27:22;;;;;;;5.72;2.17;;;;;;;-1.26;100.00;98601.38;5007655;28;20045;-64
2021/12/02 08:30:11;;;;;;;4.63;2.10;;;;;;;-1.22;100.00;98589.28;5008783;28;20069;-58
2021/12/02 08:32:58;;;;;;;5.28;2.20;;;;;;;-1.26;100.00;98598.78;5004541;28;20076;-62
2021/12/02 08:35:43;;;;;;;6.45;2.00;;;;;;;-0.88;100.00;98602.53;4994584;28;20056;-63
2021/12/02 08:38:32;;;;;;;;;;;;;;;-0.95;100.00;98598.13;5007757;28;20052;-62
2021/12/02 08:41:19;;;;;;;4.00;1.77;;;;;;;-0.96;100.00;98595.53;4993860;28;19994;-64
2021/12/02 08:44:04;;;;;;;7.80;2.08;;;;;;;-1.25;100.00;98595.34;4991799;28;20485;-63
2021/12/02 08:46:50;;;;;;;3.60;1.52;;;;;;;-1.37;100.00;98602.16;5001942;28;20129;-64
2021/12/02 08:49:35;;;;;;;3.85;1.60;;;;;;;-1.39;100.00;98598.69;4987875;28;20056;-66
2021/12/02 08:52:26;;;;;;;4.05;1.52;;;;;;;-1.42;100.00;98596.94;4992615;28;20080;-64
2021/12/02 08:55:12;;;;;;;4.38;1.83;;;;;;;-1.56;100.00;98603.75;4992630;28;20157;-68
2021/12/02 08:57:59;;;;;;;1.75;1.17;;;;;;;-1.65;100.00;98601.09;4992650;28;20053;-67
2021/12/02 09:00:44;;;;;;;3.95;1.55;;;;;;;-1.77;100.00;98594.91;4984958;28;20096;-63
2021/12/02 09:03:29;;;;;;;3.67;1.63;;;;;;;-1.71;100.00;98589.75;4982084;28;20096;-63
2021/12/02 09:06:14;;;;;;;3.00;1.20;;;;;;;-1.69;100.00;98601.03;5006092;28;20048;-64
2021/12/02 09:09:01;;;;;;;3.05;1.40;;;;;;;-1.71;100.00;98589.75;5004848;28;20057;-63
2021/12/02 09:11:46;;;;;;;5.35;1.70;;;;;;;-1.58;100.00;98597.66;4992552;28;20088;-64
2021/12/02 09:14:31;;;;;;;4.45;1.60;;;;;;;-1.62;100.00;98590.69;5007240;28;20239;-66
2021/12/02 09:17:18;;;;;;;7.88;1.83;;;;;;;-1.73;100.00;98573.28;4983297;28;20065;-73
2021/12/02 09:20:06;;;;;;;2.30;1.33;;;;;;;-1.68;100.00;98590.66;5006495;28;20053;-63
2021/12/02 09:22:52;;;;;;;8.18;2.20;;;;;;;-1.77;100.00;98582.78;4986600;28;20096;-65
2021/12/02 09:25:37;;;;;;;3.15;2.38;;;;;;;-1.88;100.00;98586.13;4976468;28;20107;-59
2021/12/02 09:28:23;;;;;;;3.83;2.30;;;;;;;-1.82;100.00;98581.00;5007240;28;20877;-63
2021/12/02 09:31:08;;;;;;;6.15;2.22;;;;;;;-1.80;100.00;98587.94;5004885;28;20061;-66
2021/12/02 09:33:53;;;;;;;3.03;2.17;;;;;;;-1.57;100.00;98586.44;4999970;28;20052;-66
2021/12/02 09:36:40;;;;;;;6.15;2.25;;;;;;;-1.76;100.00;98575.84;4988106;28;20052;-67
2021/12/02 09:39:30;;;;;;;4.88;2.10;;;;;;;-1.74;100.00;98575.00;4997209;28;20092;-65
2021/12/02 09:42:15;;;;;;;4.53;2.67;;;;;;;-1.44;100.00;98571.78;5002015;28;20092;-67
2021/12/02 09:45:00;;;;;;;3.88;1.92;;;;;;;-1.19;100.00;98578.94;4987467;28;20057;-65
2021/12/02 09:47:49;;;;;;;3.13;1.88;;;;;;;-1.41;100.00;98577.91;5000247;28;20104;-64
2021/12/02 09:50:37;;;;;;;5.57;1.70;;;;;;;-1.51;100.00;98563.06;5003648;28;20084;-63
2021/12/02 09:53:25;;;;;;;2.58;1.58;;;;;;;-1.53;100.00;98558.72;5002843;28;20167;-60
2021/12/02 09:56:17;;;;;;;4.53;2.08;;;;;;;-1.32;100.00;98544.16;5000408;28;20048;-63
2021/12/02 09:59:11;;;;;;;2.55;1.70;;;;;;;-1.23;100.00;98543.38;4998328;28;20084;-69
2021/12/02 10:02:02;;;;;;;2.88;1.58;;;;;;;-1.15;100.00;98545.13;4987724;28;20466;-65
2021/12/02 10:04:57;;;;;;;3.22;1.60;;;;;;;-1.02;100.00;98530.50;4989621;28;20048;-62
2021/12/02 10:08:00;;;;;;;3.33;1.67;;;;;;;-0.88;100.00;98527.09;5001648;28;21975;-65
2021/12/02 10:10:58;;;;;;;3.58;1.45;;;;;;;-0.85;100.00;98518.44;4991071;28;20056;-67
2021/12/02 10:14:00;;;;;;;4.00;1.42;;;;;;;-0.55;100.00;98522.00;4990665;28;20052;-63
2021/12/02 10:16:47;;;;;;;6.03;1.50;;;;;;;-0.82;100.00;98523.66;5003774;28;20409;-59
2021/12/02 10:19:32;;;;;;;3.13;1.40;;;;;;;-0.92;100.00;98519.25;4986195;28;20091;-64
2021/12/02 10:22:22;;;;;;;3.38;1.80;;;;;;;-0.86;100.00;98519.28;5003553;28;20180;-58
2021/12/02 10:25:06;;;;;;;3.50;1.70;;;;;;;-0.89;100.00;98508.88;4998853;28;20634;-62
2021/12/02 10:28:02;;;;;;;;;;;;;;;-0.94;100.00;98527.03;4998389;28;20048;-67
2021/12/02 10:30:51;;;;;;;4.60;2.53;;;;;;;-0.87;100.00;98530.56;4990402;28;20028;-62
2021/12/02 10:33:51;;;;;;;3.83;2.00;;;;;;;-0.96;100.00;98531.38;5000323;28;20151;-58
2021/12/02 10:36:45;;;;;;;3.35;1.75;;;;;;;-0.86;100.00;98521.91;4987840;28;20111;-62
2021/12/02 10:39:30;;;;;;;3.10;1.73;;;;;;;-0.84;100.00;98510.63;4987940;28;20076;-55
2021/12/02 10:42:21;;;;;;;2.65;1.60;;;;;;;-0.49;100.00;98521.16;4987434;28;20208;-61
2021/12/02 10:45:07;;;;;;;5.13;2.17;;;;;;;-0.61;100.00;98531.53;4998089;28;20528;-56
2021/12/02 10:47:55;;;;;;;3.00;1.80;;;;;;;-0.84;100.00;98518.44;5003700;28;20095;-61
2021/12/02 10:50:40;;;;;;;4.93;1.63;;;;;;;-0.80;100.00;98507.19;5000431;28;20061;-60
2021/12/02 10:53:27;;;;;;;3.35;1.40;;;;;;;-0.85;100.00;98519.31;4990518;28;20052;-60
2021/12/02 10:56:12;;;;;;;2.85;1.52;;;;;;;-0.99;100.00;98507.09;5005908;28;20052;-60
2021/12/02 10:58:56;;;;;;;4.20;1.65;;;;;;;-0.80;100.00;98514.09;4988005;28;20049;-68
2021/12/02 11:01:42;;;;;;;4.25;1.20;;;;;;;-0.70;100.00;98501.13;4988285;28;20048;-63
2021/12/02 11:04:35;;;;;;;3.05;1.60;;;;;;;-0.54;100.00;98502.97;4981371;28;20053;-61
2021/12/02 11:07:27;;;;;;;2.92;1.42;;;;;;;-0.51;100.00;98497.72;5003221;28;20068;-67
2021/12/02 11:10:15;;;;;;;1.90;1.30;;;;;;;-0.74;100.00;98514.16;4997858;28;20052;-64
2021/12/02 11:13:00;;;;;;;4.25;1.98;;;;;;;-0.49;100.00;98501.22;4979588;28;20540;-65
2021/12/02 11:15:45;;;;;;;2.42;1.30;;;;;;;-0.87;100.00;98492.41;4988065;28;20072;-66
2021/12/02 11:18:34;;;;;;;4.28;1.30;;;;;;;-0.79;100.00;98502.84;4999780;28;20103;-63
2021/12/02 11:21:20;;;;;;;5.43;1.63;;;;;;;-0.92;100.00;98498.44;5000603;28;20057;-67
2021/12/02 11:24:08;;;;;;;3.63;1.48;;;;;;;-0.77;100.00;98504.59;5001850;28;20108;-62
2021/12/02 11:27:05;;;;;;;7.88;1.42;;;;;;;-0.68;100.00;98504.63;4985517;28;20058;-65
2021/12/02 11:29:52;;;;;;;4.38;1.55;;;;;;;-0.79;100.00;98500.25;4997983;28;20417;-72
2021/12/02 11:33:00;;;;;;;5.78;1.75;;;;;;;-0.86;100.00;98496.72;5001258;28;20057;-65
2021/12/02 11:35:47;;;;;;;4.15;1.70;;;;;;;-0.63;100.00;98492.50;4990274;28;20061;-68
2021/12/02 11:38:33;;;;;;;4.25;1.50;;;;;;;-0.77;100.00;98483.78;4997000;28;20078;-67
2021/12/02 11:41:19;;;;;;;2.60;1.42;;;;;;;-0.89;100.00;98483.75;5002787;28;20080;-63
2021/12/02 11:44:05;;;;;;;3.60;1.60;;;;;;;-0.74;100.00;98480.31;4985062;28;20096;-65
2021/12/02 11:46:49;;;;;;;3.17;1.50;;;;;;;-0.75;100.00;98481.19;4998739;28;20096;-67
2021/12/02 11:49:36;;;;;;;1.98;1.15;;;;;;;-0.53;100.00;98473.44;5005533;28;20501;-68
2021/12/02 11:52:20;;;;;;;8.10;1.95;;;;;;;-0.56;100.00;98465.63;5005145;28;20064;-69
2021/12/02 11:55:17;;;;;;;2.65;1.48;;;;;;;-0.43;100.00;98462.19;5007129;28;20057;-65
2021/12/02 11:58:04;;;;;;;2.85;1.40;;;;;;;-0.48;100.00;98450.91;5006942;28;20099;-67
2021/12/02 12:00:50;;;;;;;3.00;1.40;;;;;;;-0.29;100.00;98444.88;5007809;28;20068;-67
2021/12/02 12:03:37;;;;;;;3.22;1.60;;;;;;;-0.14;100.00;98431.88;4991247;28;20045;-68
2021/12/02 12:06:30;;;;;;;3.60;1.65;;;;;;;-0.08;100.00;98430.97;5004658;28;20533;-63
2021/12/02 12:09:17;;;;;;;2.90;1.67;;;;;;;-0.03;100.00;98424.03;4980038;28;20049;-64
2021/12/02 12:12:04;;;;;;;5.32;1.90;;;;;;;0.10;100.00;98425.78;4978116;28;20100;-68
2021/12/02 12:14:51;;;;;;;3.50;2.03;;;;;;;0.17;100.00;98429.22;5006609;28;20065;-68
2021/12/02 12:17:40;;;;;;;4.38;2.08;;;;;;;0.40;100.00;98430.97;4990274;28;20184;-70
2021/12/02 12:20:55;;;;;;;6.13;1.92;;;;;;;0.13;100.00;98429.22;5005967;28;20073;-68
2021/12/02 12:23:48;;;;;;;4.20;1.90;;;;;;;0.27;100.00;98431.81;4991738;28;20819;-60
2021/12/02 12:26:41;;;;;;;4.60;2.35;;;;;;;0.13;100.00;98434.44;4990486;28;20161;-68
2021/12/02 12:29:26;;;;;;;6.90;2.20;;;;;;;-0.26;100.00;98437.06;5007446;28;20485;-60
2021/12/02 12:32:26;;;;;;;2.65;1.35;;;;;;;-0.23;100.00;98429.22;4989921;28;20132;-56
2021/12/02 12:35:22;;;;;;;5.95;1.92;;;;;;;-0.26;100.00;98426.66;4989522;28;20557;-60
2021/12/02 12:38:27;;;;;;;;;;;;;;;-0.26;100.00;98438.78;5008260;28;20048;-62
2021/12/02 12:41:17;;;;;;;5.55;2.05;;;;;;;-0.16;100.00;98424.88;4991223;28;19927;-64
2021/12/02 12:44:02;;;;;;;7.90;3.53;;;;;;;-0.47;100.00;98423.16;5006015;28;20128;-57
2021/12/02 12:46:55;;;;;;;9.43;3.67;;;;;;;-0.36;100.00;98421.41;5005932;28;20053;-60
2021/12/02 12:49:42;;;;;;;10.25;4.75;;;;;;;-0.51;100.00;98427.47;5004293;28;20068;-65
2021/12/02 12:52:27;;;;;;;12.60;3.75;;;;;;;-0.62;100.00;98417.91;5003414;28;20176;-69
2021/12/02 12:55:19;;;;;;;11.18;4.25;;;;;;;-0.49;100.00;98417.94;4990041;28;20099;-54
2021/12/02 12:58:20;;;;;;;11.38;5.10;;;;;;;-0.49;100.00;98420.53;5004652;28;20049;-57
2021/12/02 13:01:26;;;;;;;19.10;7.63;;;;;;;-0.46;100.00;98419.66;5004598;28;20902;-63
2021/12/02 13:04:14;;;;;;;20.85;8.98;;;;;;;-0.73;100.00;98402.28;5003677;28;20065;-66
2021/12/02 13:07:05;;;;;;;11.00;5.88;;;;;;;-0.42;100.00;98395.38;5006917;28;20057;-64
2021/12/02 13:10:12;;;;;;;6.53;4.00;;;;;;;-0.39;100.00;98384.97;4979013;28;20045;-65
2021/12/02 13:12:58;;;;;;;4.65;3.00;;;;;;;-0.18;100.00;98393.66;4997951;28;20052;-62
2021/12/02 13:15:44;;;;;;;5.93;2.70;;;;;;;-0.16;100.00;98389.31;4979403;28;20104;-70
2021/12/02 13:18:34;;;;;;;6.30;3.10;;;;;;;0.04;100.00;98391.94;4987864;28;20100;-63